Time;durP1;ratioP1;P1;durP2;ratioP2;P2;SDS_P1;SDS_P2;PMS_P1;PMS_P2;Temp;Humidity;BMP_temperature;BMP_pressure;BME280_temperature;BME280_humidity;BME280_pressure;Samples;Min_cycle;Max_cycle;Signal;HPM_P1;HPM_P2
2021/09/10 00:01:36;;;;;;;11.80;8.60;;;;;;;15.47;88.33;99494.53;5038114;28;20226;-67
2021/09/10 00:04:22;;;;;;;13.50;9.02;;;;;;;15.48;88.45;99498.03;5039468;28;20045;-67
2021/09/10 00:07:08;;;;;;;13.35;10.05;;;;;;;15.41;88.70;99496.59;5039250;28;20032;-66
2021/09/10 00:09:54;;;;;;;11.15;9.20;;;;;;;15.42;88.84;99490.44;5037881;28;20038;-68
2021/09/10 00:12:40;;;;;;;12.05;9.13;;;;;;;15.48;88.79;99495.41;5047495;28;20033;-66
2021/09/10 00:15:26;;;;;;;10.77;9.43;;;;;;;15.50;88.57;99493.56;5040071;28;20349;-67
2021/09/10 00:18:12;;;;;;;11.02;8.70;;;;;;;15.46;88.45;99484.16;5023561;28;20025;-67
2021/09/10 00:20:58;;;;;;;10.93;9.02;;;;;;;15.40;89.03;99476.63;5037330;28;20026;-67
2021/09/10 00:23:43;;;;;;;9.55;8.55;;;;;;;15.45;88.57;99479.84;5024971;28;20044;-67
2021/09/10 00:26:29;;;;;;;10.45;9.35;;;;;;;15.48;88.89;99487.56;5024659;28;20056;-66
2021/09/10 00:29:15;;;;;;;12.50;10.20;;;;;;;15.46;89.00;99489.41;5054883;28;20028;-66
2021/09/10 00:32:01;;;;;;;12.90;9.98;;;;;;;15.50;88.79;99485.72;5039550;28;20075;-67
2021/09/10 00:34:47;;;;;;;12.70;9.75;;;;;;;15.31;89.07;99462.22;5027231;28;20017;-65
2021/09/10 00:37:33;;;;;;;14.18;9.90;;;;;;;15.46;88.86;99485.03;5039426;28;20017;-66
2021/09/10 00:40:19;;;;;;;13.02;9.98;;;;;;;15.47;88.79;99478.03;5040362;28;20108;-66
2021/09/10 00:43:05;;;;;;;14.90;10.15;;;;;;;15.53;88.59;99483.84;5041124;28;20195;-66
2021/09/10 00:45:51;;;;;;;11.85;10.15;;;;;;;15.50;88.81;99477.91;5040879;28;20033;-67
2021/09/10 00:48:40;;;;;;;12.80;10.20;;;;;;;15.52;88.84;99483.91;5026543;28;20029;-67
2021/09/10 00:51:26;;;;;;;13.88;10.10;;;;;;;15.57;88.57;99478.47;5042108;28;20020;-66
2021/09/10 00:54:12;;;;;;;10.25;9.18;;;;;;;15.58;89.07;99478.41;5039561;28;20108;-67
2021/09/10 00:56:59;;;;;;;10.00;9.00;;;;;;;15.57;88.63;99484.53;5030196;28;20032;-67
2021/09/10 00:59:45;;;;;;;14.23;10.10;;;;;;;15.56;88.93;99482.84;5039559;28;20059;-67
2021/09/10 01:02:31;;;;;;;11.90;9.35;;;;;;;15.59;88.82;99476.63;5039412;28;20257;-66
2021/09/10 01:05:17;;;;;;;10.40;9.35;;;;;;;15.59;88.83;99477.50;5032669;28;20037;-66
2021/09/10 01:08:06;;;;;;;13.45;9.93;;;;;;;15.57;89.09;99481.09;5035500;28;20026;-66
2021/09/10 01:10:53;;;;;;;12.50;11.00;;;;;;;15.57;89.15;99478.47;5036414;28;20030;-66
2021/09/10 01:13:39;;;;;;;10.27;9.02;;;;;;;15.64;88.66;99472.06;5040528;28;20040;-67
2021/09/10 01:16:25;;;;;;;12.40;9.45;;;;;;;15.65;88.54;99477.22;5039014;28;20017;-66
2021/09/10 01:19:29;;;;;;;12.95;9.50;;;;;;;15.64;88.58;99466.84;5039598;28;20037;-66
2021/09/10 01:22:15;;;;;;;12.88;9.73;;;;;;;15.66;88.33;99475.44;5041247;28;20036;-67
2021/09/10 01:25:04;;;;;;;12.38;9.05;;;;;;;15.51;88.42;99445.66;5041030;28;20037;-67
2021/09/10 01:27:54;;;;;;;11.60;10.40;;;;;;;15.33;88.58;99414.28;5037620;28;20044;-67
2021/09/10 01:30:40;;;;;;;9.68;8.77;;;;;;;15.65;88.45;99469.38;5040178;28;20075;-67
2021/09/10 01:33:26;;;;;;;13.30;10.07;;;;;;;15.65;88.70;99463.31;5039565;28;20036;-66
2021/09/10 01:36:14;;;;;;;12.55;10.27;;;;;;;15.61;88.88;99462.59;5039763;28;20048;-66
2021/09/10 01:39:00;;;;;;;12.45;10.13;;;;;;;15.62;89.07;99463.44;5040815;28;20049;-67
2021/09/10 01:41:46;;;;;;;10.57;9.48;;;;;;;15.66;88.72;99460.63;5041546;28;20037;-67
2021/09/10 01:44:32;;;;;;;14.35;9.98;;;;;;;15.65;88.25;99452.88;5022748;28;20041;-67
2021/09/10 01:47:18;;;;;;;11.15;9.20;;;;;;;15.67;88.60;99462.31;5023371;28;20030;-67
2021/09/10 01:50:07;;;;;;;11.27;9.27;;;;;;;15.73;88.20;99470.78;5024038;28;20030;-67
2021/09/10 01:52:53;;;;;;;13.50;10.10;;;;;;;15.70;88.65;99459.59;5039330;28;20034;-67
2021/09/10 01:55:39;;;;;;;13.27;9.63;;;;;;;15.72;88.40;99456.91;5038594;28;20030;-68
2021/09/10 01:58:25;;;;;;;13.15;9.43;;;;;;;15.74;88.38;99460.28;5038535;28;20104;-67
2021/09/10 02:01:11;;;;;;;13.38;9.55;;;;;;;15.75;87.88;99458.50;5040965;28;20071;-66
2021/09/10 02:03:58;;;;;;;11.10;9.30;;;;;;;15.67;88.65;99456.25;5027158;28;20380;-67
2021/09/10 02:06:43;;;;;;;11.00;8.90;;;;;;;15.76;88.56;99453.22;5052939;28;20100;-67
2021/09/10 02:09:29;;;;;;;9.82;8.75;;;;;;;15.80;87.94;99467.00;5040133;28;20021;-67
2021/09/10 02:12:15;;;;;;;14.27;9.82;;;;;;;15.74;88.29;99455.03;5035200;28;20266;-67
2021/09/10 02:15:01;;;;;;;10.60;9.43;;;;;;;15.76;88.10;99450.63;5036954;28;20030;-67
2021/09/10 02:17:47;;;;;;;11.52;8.80;;;;;;;15.81;87.79;99456.47;5028876;28;20044;-68
2021/09/10 02:20:33;;;;;;;12.93;10.27;;;;;;;15.79;87.76;99450.50;5043671;28;20032;-66
2021/09/10 02:23:18;;;;;;;11.18;9.50;;;;;;;15.82;87.93;99447.75;5042045;28;20060;-67
2021/09/10 02:26:04;;;;;;;11.20;9.48;;;;;;;15.81;87.88;99442.59;5041064;28;20083;-66
2021/09/10 02:28:50;;;;;;;12.57;9.60;;;;;;;15.81;87.55;99446.03;5043445;28;20034;-66
2021/09/10 02:31:36;;;;;;;13.48;9.82;;;;;;;15.85;87.50;99446.75;5042344;28;20025;-66
2021/09/10 02:34:22;;;;;;;10.40;9.30;;;;;;;15.80;87.72;99446.94;5041975;28;20029;-66
2021/09/10 02:37:08;;;;;;;10.65;9.50;;;;;;;15.83;87.78;99445.97;5043469;28;20119;-66
2021/09/10 02:39:54;;;;;;;11.50;9.13;;;;;;;15.77;87.76;99431.41;5034558;28;20209;-66
2021/09/10 02:42:40;;;;;;;10.82;9.63;;;;;;;15.82;87.49;99444.28;5042040;28;20029;-67
2021/09/10 02:45:26;;;;;;;10.90;9.63;;;;;;;15.87;87.32;99447.50;5039197;28;20025;-67
2021/09/10 02:48:11;;;;;;;11.20;9.35;;;;;;;15.78;87.35;99442.72;5037452;28;20388;-67
2021/09/10 02:50:57;;;;;;;13.15;9.82;;;;;;;15.83;87.43;99461.63;5038938;28;20041;-66
2021/09/10 02:53:43;;;;;;;10.65;8.50;;;;;;;15.80;87.72;99464.38;5035289;28;20025;-66
2021/09/10 02:56:29;;;;;;;11.48;9.93;;;;;;;15.77;87.65;99464.50;5040443;28;20026;-67
2021/09/10 02:59:15;;;;;;;12.75;10.50;;;;;;;15.77;87.49;99464.50;5034494;28;20225;-66
2021/09/10 03:02:01;;;;;;;10.55;9.10;;;;;;;15.80;87.80;99473.06;5041906;28;20188;-66
2021/09/10 03:04:47;;;;;;;11.90;10.02;;;;;;;15.79;87.78;99465.31;5027685;28;20052;-67
2021/09/10 03:07:33;;;;;;;13.60;10.25;;;;;;;15.79;87.75;99465.31;5040582;28;20224;-67
2021/09/10 03:10:19;;;;;;;13.82;9.77;;;;;;;15.77;87.53;99459.28;5035543;28;20567;-65
2021/09/10 03:13:05;;;;;;;12.98;10.40;;;;;;;15.80;87.42;99472.22;5041462;28;20037;-67
2021/09/10 03:15:51;;;;;;;16.27;10.65;;;;;;;15.81;87.72;99471.31;5054723;28;20060;-66
2021/09/10 03:18:37;;;;;;;10.70;9.63;;;;;;;15.79;87.85;99475.75;5039542;28;20033;-67
2021/09/10 03:21:23;;;;;;;14.23;10.60;;;;;;;15.82;87.93;99465.19;5043086;28;20222;-66
2021/09/10 03:24:09;;;;;;;12.13;9.38;;;;;;;15.86;87.44;99472.78;5040869;28;20049;-66
2021/09/10 03:26:54;;;;;;;10.55;9.05;;;;;;;15.87;87.56;99477.06;5035279;28;20022;-66
2021/09/10 03:29:40;;;;;;;12.13;9.88;;;;;;;15.85;87.57;99476.31;5028805;28;20033;-66
2021/09/10 03:32:26;;;;;;;13.30;10.27;;;;;;;15.84;87.33;99479.00;5028905;28;20040;-66
2021/09/10 03:35:13;;;;;;;11.05;9.95;;;;;;;15.81;87.61;99481.75;5031112;28;20029;-66
2021/09/10 03:37:58;;;;;;;10.32;9.32;;;;;;;15.80;87.75;99485.28;5038008;28;20064;-66
2021/09/10 03:40:44;;;;;;;14.00;10.35;;;;;;;15.77;87.87;99482.78;5035949;28;20087;-66
2021/09/10 03:43:30;;;;;;;14.75;9.90;;;;;;;15.78;87.84;99484.50;5028667;28;20037;-66
2021/09/10 03:46:16;;;;;;;11.48;10.00;;;;;;;15.79;88.03;99481.84;5035100;28;20065;-66
2021/09/10 03:49:02;;;;;;;14.77;10.55;;;;;;;15.79;88.38;99480.97;5045682;28;20030;-66
2021/09/10 03:51:48;;;;;;;13.95;10.80;;;;;;;15.80;88.27;99480.06;5031564;28;20030;-66
2021/09/10 03:54:34;;;;;;;14.32;10.65;;;;;;;15.85;88.00;99486.75;5041295;28;20025;-65
2021/09/10 03:57:20;;;;;;;14.02;10.88;;;;;;;15.88;88.09;99498.84;5039366;28;20017;-66
2021/09/10 04:00:07;;;;;;;14.45;10.95;;;;;;;15.92;88.03;99496.91;5032153;28;20033;-67
2021/09/10 04:02:53;;;;;;;17.58;10.85;;;;;;;15.90;88.52;99493.53;5027241;28;20037;-66
2021/09/10 04:05:39;;;;;;;11.30;10.15;;;;;;;15.93;88.33;99489.00;5030962;28;20091;-66
2021/09/10 04:08:25;;;;;;;14.98;11.20;;;;;;;15.86;88.56;99479.75;5033837;28;20025;-66
2021/09/10 04:11:11;;;;;;;15.20;10.55;;;;;;;15.91;88.38;99487.41;5029220;28;20030;-68
2021/09/10 04:13:57;;;;;;;11.57;10.35;;;;;;;16.03;88.23;99500.75;5027131;28;20033;-68
2021/09/10 04:16:43;;;;;;;13.18;9.43;;;;;;;16.07;88.04;99504.03;5028815;28;20211;-68
2021/09/10 04:19:29;;;;;;;12.98;10.30;;;;;;;15.99;88.04;99499.19;5029643;28;20183;-68
2021/09/10 04:22:15;;;;;;;12.20;10.10;;;;;;;16.05;88.02;99506.72;5037583;28;20094;-67
2021/09/10 04:25:00;;;;;;;13.60;10.75;;;;;;;16.08;87.74;99503.13;5040755;28;20392;-67
2021/09/10 04:27:46;;;;;;;12.70;10.45;;;;;;;16.12;88.28;99503.81;5040429;28;20025;-65
2021/09/10 04:30:32;;;;;;;12.57;10.25;;;;;;;16.14;87.49;99504.59;5035276;28;20091;-63
2021/09/10 04:33:21;;;;;;;16.65;9.65;;;;;;;16.15;87.80;99514.97;5032126;28;20014;-64
2021/09/10 04:36:07;;;;;;;11.38;9.73;;;;;;;16.20;87.71;99507.78;5028315;28;20030;-66
2021/09/10 04:38:52;;;;;;;14.68;10.30;;;;;;;16.24;87.53;99510.25;5039207;28;20124;-66
2021/09/10 04:41:38;;;;;;;14.02;10.48;;;;;;;16.21;88.10;99511.22;5042685;28;20037;-65
2021/09/10 04:44:24;;;;;;;14.25;10.23;;;;;;;16.11;87.77;99494.31;5042773;28;20033;-66
2021/09/10 04:47:10;;;;;;;14.38;9.88;;;;;;;16.28;87.65;99519.63;5039113;28;20029;-66
2021/09/10 04:49:56;;;;;;;14.18;10.35;;;;;;;16.32;87.79;99518.56;5036357;28;20230;-65
2021/09/10 04:52:42;;;;;;;10.30;9.27;;;;;;;16.38;87.24;99515.66;5038232;28;20033;-65
2021/09/10 04:55:28;;;;;;;12.45;9.85;;;;;;;16.39;87.42;99520.81;5029913;28;20045;-65
2021/09/10 04:58:14;;;;;;;14.18;10.70;;;;;;;16.44;86.96;99517.97;5039079;28;20025;-65
2021/09/10 05:00:59;;;;;;;13.48;9.90;;;;;;;16.46;86.88;99515.28;5031370;28;20717;-66
2021/09/10 05:03:45;;;;;;;14.30;9.93;;;;;;;16.51;86.66;99521.13;5036360;28;20330;-65
2021/09/10 05:06:31;;;;;;;13.00;10.18;;;;;;;16.53;87.45;99520.16;5055310;28;20074;-65
2021/09/10 05:09:17;;;;;;;14.73;10.23;;;;;;;16.58;87.40;99524.31;5033709;28;20030;-64
2021/09/10 05:12:04;;;;;;;16.23;10.70;;;;;;;16.62;86.70;99525.84;5039920;28;20033;-65
2021/09/10 05:14:52;;;;;;;19.92;11.13;;;;;;;16.67;86.94;99513.38;5039485;28;20029;-65
2021/09/10 05:17:38;;;;;;;17.48;11.35;;;;;;;16.67;87.22;99516.00;5037880;28;20100;-65
2021/09/10 05:20:24;;;;;;;17.50;10.73;;;;;;;16.72;86.62;99521.84;5038948;28;20071;-65
2021/09/10 05:23:09;;;;;;;14.75;10.60;;;;;;;16.81;86.08;99517.94;5037100;28;20074;-65
2021/09/10 05:25:55;;;;;;;13.57;11.02;;;;;;;16.83;86.16;99516.06;5039667;28;21145;-66
2021/09/10 05:28:41;;;;;;;14.43;10.23;;;;;;;16.94;86.62;99520.81;5038872;28;20035;-64
2021/09/10 05:31:27;;;;;;;11.73;9.60;;;;;;;16.89;85.46;99505.34;5039641;28;20025;-64
2021/09/10 05:34:13;;;;;;;13.63;9.63;;;;;;;16.96;85.66;99517.19;5053142;28;20044;-65
2021/09/10 05:36:59;;;;;;;16.20;10.85;;;;;;;16.99;85.54;99519.66;5041550;28;20033;-65
2021/09/10 05:39:45;;;;;;;16.02;9.68;;;;;;;17.11;85.48;99520.78;5041202;28;20078;-66
2021/09/10 05:42:30;;;;;;;13.98;9.95;;;;;;;17.17;84.88;99524.84;5044776;28;20353;-65
2021/09/10 05:45:17;;;;;;;14.73;9.98;;;;;;;17.23;85.13;99521.94;5043344;28;20026;-65
2021/09/10 05:48:03;;;;;;;12.98;10.50;;;;;;;17.16;84.30;99525.78;5043801;28;20026;-65
2021/09/10 05:50:50;;;;;;;14.52;9.02;;;;;;;17.28;84.38;99519.91;5054840;28;20480;-65
2021/09/10 05:53:36;;;;;;;11.95;9.77;;;;;;;17.36;84.49;99527.38;5027830;28;20025;-65
2021/09/10 05:56:21;;;;;;;15.25;9.70;;;;;;;17.31;84.50;99509.28;5038302;28;20253;-65
2021/09/10 05:59:07;;;;;;;11.35;8.65;;;;;;;17.43;84.63;99513.88;5039670;28;20033;-65
2021/09/10 06:01:53;;;;;;;13.23;10.55;;;;;;;17.49;84.44;99520.56;5039863;28;20025;-65
2021/09/10 06:04:39;;;;;;;13.38;9.40;;;;;;;17.50;83.85;99510.94;5037808;28;20032;-65
2021/09/10 06:07:25;;;;;;;11.65;8.80;;;;;;;17.57;83.45;99515.78;5036670;28;20021;-64
2021/09/10 06:10:13;;;;;;;13.00;9.27;;;;;;;17.60;83.17;99518.22;5034492;28;20075;-66
2021/09/10 06:12:58;;;;;;;14.57;9.85;;;;;;;17.64;83.50;99521.50;5040757;28;20025;-64
2021/09/10 06:15:44;;;;;;;13.40;9.25;;;;;;;17.74;83.24;99524.50;5037914;28;20060;-65
2021/09/10 06:18:30;;;;;;;11.95;8.82;;;;;;;17.84;83.24;99525.72;5036718;28;20341;-64
2021/09/10 06:21:16;;;;;;;12.55;9.13;;;;;;;17.83;82.70;99536.25;5037375;28;20100;-64
2021/09/10 06:24:02;;;;;;;14.15;9.80;;;;;;;17.89;82.57;99533.31;5023201;28;20037;-65
2021/09/10 06:26:48;;;;;;;11.23;7.95;;;;;;;17.90;82.71;99540.22;5030576;28;20096;-65
2021/09/10 06:29:34;;;;;;;12.43;8.25;;;;;;;17.94;82.18;99542.66;5036104;28;20014;-65
2021/09/10 06:32:24;;;;;;;15.82;9.00;;;;;;;17.94;82.01;99531.31;5037454;28;20030;-66
2021/09/10 06:35:14;;;;;;;12.05;8.32;;;;;;;17.97;82.19;99535.53;5045238;28;20383;-66
2021/09/10 06:38:00;;;;;;;11.07;8.68;;;;;;;17.84;81.87;99530.94;5005459;28;20036;-64
2021/09/10 06:40:46;;;;;;;14.30;8.02;;;;;;;17.87;80.77;99545.63;5040018;28;20045;-63
2021/09/10 06:43:32;;;;;;;14.93;8.18;;;;;;;17.91;80.83;99549.81;5040704;28;20100;-64
2021/09/10 06:46:18;;;;;;;11.40;8.40;;;;;;;17.85;81.53;99547.50;5041995;28;20029;-65
2021/09/10 06:49:04;;;;;;;11.50;8.02;;;;;;;17.91;82.03;99561.16;5057272;28;20025;-65
2021/09/10 06:51:49;;;;;;;11.32;8.55;;;;;;;17.93;81.49;99554.06;5040416;28;20600;-64
2021/09/10 06:54:35;;;;;;;15.13;8.18;;;;;;;17.87;82.01;99563.97;5041298;28;20033;-65
2021/09/10 06:57:21;;;;;;;8.85;7.72;;;;;;;17.91;81.25;99565.53;5041736;28;20093;-65
2021/09/10 07:00:08;;;;;;;11.25;8.00;;;;;;;17.95;82.03;99561.81;5043516;28;20088;-65
2021/09/10 07:02:54;;;;;;;10.68;8.07;;;;;;;17.96;81.29;99570.53;5042952;28;20033;-65
2021/09/10 07:05:40;;;;;;;11.57;8.30;;;;;;;17.95;80.65;99574.94;5040660;28;20542;-65
2021/09/10 07:08:26;;;;;;;13.20;8.75;;;;;;;17.94;81.64;99565.38;5043307;28;20025;-66
2021/09/10 07:11:11;;;;;;;11.63;7.70;;;;;;;18.06;81.90;99574.34;5042007;28;20230;-66
2021/09/10 07:13:57;;;;;;;11.68;8.65;;;;;;;18.08;82.12;99575.94;5030909;28;20057;-65
2021/09/10 07:16:43;;;;;;;10.35;7.60;;;;;;;18.10;82.09;99589.81;5030987;28;20026;-65
2021/09/10 07:19:29;;;;;;;12.48;8.00;;;;;;;18.08;81.55;99580.34;5051169;28;20025;-65
2021/09/10 07:22:15;;;;;;;12.10;8.45;;;;;;;18.10;81.80;99584.59;5033166;28;20026;-65
2021/09/10 07:25:01;;;;;;;11.60;7.97;;;;;;;18.10;81.32;99587.22;5040188;28;20045;-64
2021/09/10 07:27:47;;;;;;;13.60;8.63;;;;;;;18.17;81.47;99592.09;5039935;28;20022;-65
2021/09/10 07:30:33;;;;;;;13.88;7.95;;;;;;;18.10;81.62;99595.06;5040698;28;20036;-64
2021/09/10 07:33:19;;;;;;;17.88;8.40;;;;;;;18.11;80.52;99595.91;5040407;28;20029;-65
2021/09/10 07:36:05;;;;;;;13.82;8.18;;;;;;;18.11;81.87;99599.41;5034367;28;20030;-65
2021/09/10 07:38:51;;;;;;;13.50;8.43;;;;;;;18.11;81.43;99602.00;5035783;28;20253;-65
2021/09/10 07:41:38;;;;;;;10.43;8.50;;;;;;;18.08;82.03;99596.91;5040953;28;20026;-65
2021/09/10 07:44:23;;;;;;;12.27;7.78;;;;;;;18.06;82.20;99605.81;5032916;28;20251;-65
2021/09/10 07:47:11;;;;;;;9.98;8.23;;;;;;;18.11;81.97;99606.38;5031820;28;20318;-65
2021/09/10 07:49:57;;;;;;;14.10;7.95;;;;;;;18.10;81.89;99605.56;5042719;28;20033;-65
2021/09/10 07:52:42;;;;;;;12.52;7.70;;;;;;;18.15;81.41;99609.72;5040634;28;20017;-65
2021/09/10 07:55:28;;;;;;;11.68;7.43;;;;;;;18.10;81.54;99595.06;5043483;28;20084;-65
2021/09/10 07:58:14;;;;;;;12.77;8.27;;;;;;;18.23;81.12;99610.16;5021713;28;20087;-66
2021/09/10 08:01:00;;;;;;;12.48;7.70;;;;;;;18.26;81.65;99604.72;5039347;28;20580;-66
2021/09/10 08:03:46;;;;;;;14.63;7.93;;;;;;;18.23;81.90;99597.03;5035566;28;20095;-65
2021/09/10 08:06:33;;;;;;;9.93;7.40;;;;;;;18.28;81.45;99606.34;5038783;28;20030;-66
2021/09/10 08:09:19;;;;;;;10.75;7.68;;;;;;;18.29;81.47;99610.63;5039252;28;20021;-65
2021/09/10 08:12:06;;;;;;;10.75;7.95;;;;;;;18.32;80.93;99609.63;5037317;28;20057;-66
2021/09/10 08:14:52;;;;;;;11.18;7.47;;;;;;;18.42;80.80;99616.06;5034765;28;20052;-66
2021/09/10 08:17:38;;;;;;;12.00;8.18;;;;;;;18.41;80.75;99619.63;5038234;28;20022;-66
2021/09/10 08:20:23;;;;;;;10.55;8.02;;;;;;;18.41;79.87;99624.88;5040073;28;20100;-65
2021/09/10 08:23:09;;;;;;;10.27;7.78;;;;;;;18.38;81.15;99614.53;5036039;28;20329;-65
2021/09/10 08:25:55;;;;;;;11.95;8.32;;;;;;;18.37;81.04;99623.34;5024802;28;20071;-65
2021/09/10 08:28:41;;;;;;;11.13;7.65;;;;;;;18.35;81.15;99616.47;5029491;28;20041;-65
2021/09/10 08:31:27;;;;;;;12.00;7.60;;;;;;;18.34;79.34;99625.28;5040409;28;20032;-65
2021/09/10 08:34:13;;;;;;;10.27;7.43;;;;;;;18.41;79.82;99631.88;5039552;28;20041;-65
2021/09/10 08:36:59;;;;;;;11.35;7.80;;;;;;;18.30;79.82;99627.22;5030448;28;20034;-65
2021/09/10 08:39:45;;;;;;;11.20;7.65;;;;;;;18.32;79.71;99625.34;5039284;28;20387;-65
2021/09/10 08:42:31;;;;;;;10.98;7.95;;;;;;;18.38;80.10;99621.56;5032257;28;20042;-65
2021/09/10 08:45:17;;;;;;;12.13;8.07;;;;;;;18.43;80.67;99623.00;5034587;28;20200;-65
2021/09/10 08:48:04;;;;;;;13.82;7.93;;;;;;;18.58;80.66;99617.81;5024287;28;20046;-66
2021/09/10 08:50:51;;;;;;;13.00;8.00;;;;;;;18.65;80.65;99621.78;5034350;28;20033;-65
2021/09/10 08:53:37;;;;;;;14.73;8.45;;;;;;;18.80;79.20;99620.09;5025877;28;20033;-65
2021/09/10 08:56:23;;;;;;;14.98;8.45;;;;;;;18.88;78.98;99611.81;5039716;28;20420;-64
2021/09/10 08:59:15;;;;;;;12.18;8.20;;;;;;;19.28;77.64;99609.50;5038387;28;20313;-65
2021/09/10 09:02:01;;;;;;;12.50;7.60;;;;;;;19.45;76.58;99622.50;5031571;28;20361;-66
2021/09/10 09:04:57;;;;;;;10.38;7.75;;;;;;;19.00;75.55;99578.75;5033787;28;20033;-65
2021/09/10 09:07:43;;;;;;;11.23;7.55;;;;;;;19.31;76.08;99620.69;5031558;28;20097;-64
2021/09/10 09:10:50;;;;;;;8.95;7.88;;;;;;;19.42;75.99;99622.66;5031746;28;20032;-66
2021/09/10 09:13:42;;;;;;;10.95;7.45;;;;;;;19.22;76.17;99646.63;5039166;28;20025;-65
2021/09/10 09:16:30;;;;;;;13.05;7.90;;;;;;;19.29;77.23;99633.03;5037982;28;20183;-65
2021/09/10 09:19:20;;;;;;;8.52;7.68;;;;;;;19.04;77.94;99585.53;5040768;28;20099;-66
2021/09/10 09:22:05;;;;;;;13.48;7.80;;;;;;;19.29;76.56;99627.78;5041108;28;20032;-64
2021/09/10 09:25:06;;;;;;;9.35;7.53;;;;;;;19.21;76.53;99609.03;5038500;28;20325;-65
2021/09/10 09:27:53;;;;;;;7.95;6.97;;;;;;;19.39;76.00;99628.09;5038762;28;20052;-65
2021/09/10 09:30:39;;;;;;;7.80;7.00;;;;;;;19.40;75.21;99628.97;5040689;28;20040;-64
2021/09/10 09:33:30;;;;;;;8.05;6.80;;;;;;;19.54;76.24;99620.22;5050835;28;20067;-65
2021/09/10 09:36:17;;;;;;;11.23;7.15;;;;;;;19.48;74.95;99622.31;5032505;28;20056;-65
2021/09/10 09:39:10;;;;;;;11.50;7.47;;;;;;;19.62;75.01;99618.88;5038263;28;20025;-65
2021/09/10 09:42:08;;;;;;;12.27;7.40;;;;;;;19.56;75.34;99579.81;5037001;28;20076;-67
2021/09/10 09:45:14;;;;;;;9.43;6.70;;;;;;;19.88;74.57;99626.97;5038097;28;20029;-66
2021/09/10 09:48:00;;;;;;;13.15;7.10;;;;;;;19.92;74.18;99628.44;5002642;28;20029;-66
2021/09/10 09:50:48;;;;;;;10.98;7.13;;;;;;;19.97;73.67;99618.50;5010124;28;20018;-66
2021/09/10 09:53:37;;;;;;;10.95;6.45;;;;;;;19.83;73.48;99585.19;5006518;28;20018;-66
2021/09/10 09:56:24;;;;;;;7.35;6.13;;;;;;;20.14;72.38;99629.78;5020688;28;20368;-66
2021/09/10 09:59:12;;;;;;;11.57;6.53;;;;;;;20.06;72.37;99622.34;5021521;28;20033;-65
2021/09/10 10:01:58;;;;;;;6.38;5.78;;;;;;;20.08;71.28;99628.38;5030309;28;20030;-66
2021/09/10 10:04:43;;;;;;;6.10;5.50;;;;;;;20.11;71.63;99628.19;5009217;28;20318;-66
2021/09/10 10:07:35;;;;;;;6.47;5.05;;;;;;;19.89;71.66;99580.50;5024578;28;20202;-65
2021/09/10 10:10:25;;;;;;;8.38;5.78;;;;;;;20.18;72.40;99626.84;5031467;28;20075;-65
2021/09/10 10:13:18;;;;;;;10.23;5.90;;;;;;;20.20;70.76;99639.06;5018417;28;20049;-65
2021/09/10 10:16:04;;;;;;;8.63;5.43;;;;;;;20.21;71.49;99624.97;5030577;28;20022;-66
2021/09/10 10:18:50;;;;;;;5.90;5.28;;;;;;;20.24;71.73;99635.31;5028305;28;20029;-67
2021/09/10 10:21:51;;;;;;;7.78;5.40;;;;;;;20.17;70.52;99633.06;5037549;28;20022;-65
2021/09/10 10:25:09;;;;;;;8.50;4.88;;;;;;;20.24;68.43;99632.69;5025134;28;20025;-66
2021/09/10 10:27:55;;;;;;;10.57;5.22;;;;;;;20.23;69.47;99637.09;5021470;28;20049;-67
2021/09/10 10:30:46;;;;;;;7.80;5.00;;;;;;;20.17;68.35;99638.31;5021924;28;20034;-66
2021/09/10 10:33:32;;;;;;;5.72;5.13;;;;;;;20.09;68.88;99640.56;5018643;28;20030;-67
2021/09/10 10:36:32;;;;;;;7.30;4.70;;;;;;;20.18;68.74;99640.00;5033124;28;20075;-67
2021/09/10 10:39:26;;;;;;;5.53;4.25;;;;;;;20.05;70.61;99648.75;5005968;28;20183;-66
2021/09/10 10:42:12;;;;;;;8.70;5.40;;;;;;;19.97;71.31;99650.06;5009883;28;20243;-67
2021/09/10 10:44:58;;;;;;;7.28;5.43;;;;;;;19.91;70.44;99641.69;5012525;28;20037;-67
2021/09/10 10:47:44;;;;;;;8.50;4.95;;;;;;;19.99;71.20;99642.06;5017680;28;20199;-67
2021/09/10 10:50:34;;;;;;;6.30;5.00;;;;;;;20.03;70.74;99638.31;5019943;28;20036;-66
2021/09/10 10:53:19;;;;;;;13.93;6.03;;;;;;;20.04;70.04;99649.66;5017609;28;20022;-66
2021/09/10 10:56:24;;;;;;;10.85;4.97;;;;;;;20.16;71.12;99648.94;5018127;28;20045;-66
2021/09/10 10:59:16;;;;;;;9.05;5.68;;;;;;;20.11;70.84;99650.97;5012636;28;20021;-65
2021/09/10 11:02:14;;;;;;;10.32;5.40;;;;;;;20.08;70.36;99645.91;5017976;28;20073;-65
2021/09/10 11:05:00;;;;;;;6.75;5.15;;;;;;;20.12;71.16;99661.44;5017817;28;20623;-65
2021/09/10 11:07:46;;;;;;;5.75;5.10;;;;;;;20.16;70.77;99665.53;5021862;28;20097;-65
2021/09/10 11:10:32;;;;;;;6.05;5.15;;;;;;;20.14;70.79;99658.72;5022145;28;20022;-66
2021/09/10 11:13:18;;;;;;;14.68;5.55;;;;;;;20.11;71.12;99662.38;5016682;28;20322;-66
2021/09/10 11:16:08;;;;;;;13.20;5.50;;;;;;;20.18;70.98;99662.84;5014640;28;20093;-66
2021/09/10 11:18:54;;;;;;;9.15;5.72;;;;;;;20.17;71.36;99667.25;5019763;28;20038;-66
2021/09/10 11:21:40;;;;;;;8.77;5.65;;;;;;;20.07;71.72;99665.28;5006750;28;20038;-67
2021/09/10 11:24:29;;;;;;;9.00;5.30;;;;;;;19.82;71.76;99625.56;5016943;28;20083;-66
2021/09/10 11:27:29;;;;;;;11.30;6.07;;;;;;;20.17;71.36;99666.41;5014567;28;20101;-66
2021/09/10 11:30:15;;;;;;;9.98;5.50;;;;;;;20.22;72.86;99664.31;5021371;28;20032;-66
2021/09/10 11:33:02;;;;;;;9.75;5.90;;;;;;;20.25;72.34;99668.53;5020631;28;20044;-67
2021/09/10 11:35:52;;;;;;;10.88;5.60;;;;;;;20.21;70.80;99681.06;5022010;28;20262;-66
2021/09/10 11:38:37;;;;;;;10.27;5.90;;;;;;;20.20;70.48;99673.25;5005676;28;20327;-66
2021/09/10 11:41:23;;;;;;;11.35;5.68;;;;;;;20.25;69.44;99666.78;5033568;28;20049;-66
2021/09/10 11:44:13;;;;;;;12.30;5.95;;;;;;;20.18;69.42;99670.72;5039925;28;20084;-66
2021/09/10 11:46:58;;;;;;;9.45;5.40;;;;;;;20.32;71.50;99669.84;5033276;28;20165;-66
2021/09/10 11:49:57;;;;;;;11.85;5.70;;;;;;;20.21;69.95;99664.41;5039965;28;20021;-66
2021/09/10 11:52:43;;;;;;;7.63;5.28;;;;;;;20.21;68.90;99681.06;5041784;28;20033;-66
2021/09/10 11:55:29;;;;;;;8.50;5.70;;;;;;;20.20;69.18;99682.00;5040320;28;20022;-65
2021/09/10 11:58:15;;;;;;;8.40;5.80;;;;;;;20.21;70.11;99683.69;5041616;28;20022;-66
2021/09/10 12:01:11;;;;;;;7.40;5.85;;;;;;;20.27;70.27;99671.94;5041666;28;20029;-66
2021/09/10 12:04:02;;;;;;;11.18;5.60;;;;;;;20.21;69.92;99681.06;5040517;28;20032;-65
2021/09/10 12:06:50;;;;;;;10.05;5.70;;;;;;;20.06;69.24;99684.63;5039940;28;20040;-65
2021/09/10 12:09:40;;;;;;;8.55;5.47;;;;;;;20.15;69.98;99679.66;5041421;28;20222;-66
2021/09/10 12:12:28;;;;;;;10.40;5.85;;;;;;;19.81;71.55;99634.38;5033557;28;20033;-66
2021/09/10 12:15:14;;;;;;;9.38;5.90;;;;;;;20.06;70.28;99679.38;5035201;28;20022;-65
2021/09/10 12:18:14;;;;;;;9.55;5.50;;;;;;;19.74;69.88;99633.03;5036251;28;20125;-65
2021/09/10 12:21:00;;;;;;;6.82;5.97;;;;;;;20.04;70.83;99682.09;5031064;28;20655;-67
2021/09/10 12:23:46;;;;;;;6.50;5.28;;;;;;;19.92;69.84;99688.09;5032930;28;20085;-66
2021/09/10 12:26:51;;;;;;;9.85;5.90;;;;;;;19.64;73.00;99708.09;5035266;28;20033;-64
2021/09/10 12:29:37;;;;;;;6.10;4.80;;;;;;;19.38;76.79;99715.72;5030099;28;20347;-67
2021/09/10 12:32:23;;;;;;;11.77;5.60;;;;;;;19.17;79.78;99727.44;5028731;28;20219;-67
2021/09/10 12:35:09;;;;;;;7.22;4.85;;;;;;;19.16;80.22;99734.47;5028021;28;20026;-65
2021/09/10 12:37:58;;;;;;;8.88;4.63;;;;;;;18.55;83.52;99694.91;5023790;28;20042;-65
2021/09/10 12:40:46;;;;;;;6.10;3.60;;;;;;;18.34;84.34;99701.31;5024736;28;20285;-66
2021/09/10 12:43:33;;;;;;;4.53;2.70;;;;;;;18.57;83.15;99742.91;5017675;28;20018;-65
2021/09/10 12:46:19;;;;;;;3.83;2.70;;;;;;;18.43;83.81;99737.56;5015919;28;20087;-65
2021/09/10 12:49:06;;;;;;;3.88;2.95;;;;;;;18.18;85.00;99701.28;5029780;28;20029;-65
2021/09/10 12:51:52;;;;;;;3.00;2.38;;;;;;;18.42;84.84;99752.41;5020384;28;20029;-66
2021/09/10 12:54:38;;;;;;;2.40;2.17;;;;;;;18.34;84.21;99754.63;5013516;28;20026;-66
2021/09/10 12:57:24;;;;;;;2.42;2.00;;;;;;;18.24;84.56;99751.63;5013446;28;20270;-66